CFG789 ESGG-ENBR
Flight info
| Callsign | CFG789 |
|---|---|
| Flight time | 1h 2m |
| Altitude | 36000 |
| Route | DETNA DCT ARTOR DCT TITUX DCT PESUR |
| Aircraft | A320/M-SDE3FGHIRWY/LB1 |
Departure
| Time | 2026-05-06 18:54 |
|---|---|
| Airport | Göteborg Landvetter Airport (ESGG) |
Arrival
| Time | 2026-05-06 19:57 |
|---|---|
| Airport | Bergen Airport, Flesland (ENBR) |
| Time | Latitude | Longitude | Altitude | Speed | Heading |
|---|---|---|---|---|---|
| 2026-05-06 18:17 | 57.67079 | 12.29351 | 529 ft | 0 kts | 250° |
| 2026-05-06 18:42 | 57.67079 | 12.29352 | 529 ft | 2 kts | 250° |
| 2026-05-06 18:42 | 57.67085 | 12.29382 | 529 ft | 2 kts | 250° |
| 2026-05-06 18:43 | 57.67090 | 12.29411 | 529 ft | 2 kts | 250° |
| 2026-05-06 18:43 | 57.67095 | 12.29441 | 530 ft | 2 kts | 233° |
| 2026-05-06 18:43 | 57.67106 | 12.29465 | 530 ft | 2 kts | 213° |
| 2026-05-06 18:43 | 57.67108 | 12.29468 | 530 ft | 0 kts | 201° |
| 2026-05-06 18:48 | 57.67105 | 12.29466 | 530 ft | 4 kts | 202° |
| 2026-05-06 18:48 | 57.67075 | 12.29439 | 529 ft | 3 kts | 206° |
| 2026-05-06 18:49 | 57.67046 | 12.29411 | 529 ft | 8 kts | 206° |
| 2026-05-06 18:49 | 57.66999 | 12.29362 | 529 ft | 7 kts | 221° |
| 2026-05-06 18:49 | 57.66989 | 12.29281 | 528 ft | 6 kts | 279° |
| 2026-05-06 18:49 | 57.67007 | 12.29223 | 528 ft | 4 kts | 310° |
| 2026-05-06 18:50 | 57.67055 | 12.29199 | 529 ft | 10 kts | 8° |
| 2026-05-06 18:50 | 57.67111 | 12.29248 | 529 ft | 8 kts | 25° |
| 2026-05-06 18:50 | 57.67174 | 12.29306 | 530 ft | 10 kts | 26° |
| 2026-05-06 18:50 | 57.67229 | 12.29357 | 531 ft | 8 kts | 26° |
| 2026-05-06 18:51 | 57.67272 | 12.29398 | 531 ft | 7 kts | 26° |
| 2026-05-06 18:51 | 57.67346 | 12.29463 | 532 ft | 13 kts | 25° |
| 2026-05-06 18:51 | 57.67420 | 12.29435 | 532 ft | 12 kts | 302° |
| 2026-05-06 18:51 | 57.67458 | 12.29277 | 532 ft | 12 kts | 281° |
| 2026-05-06 18:52 | 57.67459 | 12.29269 | 532 ft | 0 kts | 278° |
| 2026-05-06 18:52 | 57.67458 | 12.29196 | 531 ft | 8 kts | 264° |
| 2026-05-06 18:52 | 57.67448 | 12.29079 | 530 ft | 10 kts | 259° |
| 2026-05-06 18:53 | 57.67419 | 12.29011 | 530 ft | 0 kts | 208° |
| 2026-05-06 18:53 | 57.67404 | 12.28996 | 531 ft | 15 kts | 206° |
| 2026-05-06 18:54 | 57.67039 | 12.28659 | 530 ft | 97 kts | 206° |
| 2026-05-06 18:54 | 57.66232 | 12.27926 | 517 ft | 158 kts | 206° |
| 2026-05-06 18:54 | 57.65288 | 12.27029 | 946 ft | 168 kts | 210° |
| 2026-05-06 18:54 | 57.64234 | 12.26045 | 1690 ft | 170 kts | 208° |
| 2026-05-06 18:55 | 57.63161 | 12.25081 | 2469 ft | 174 kts | 207° |
| 2026-05-06 18:55 | 57.62002 | 12.24042 | 2935 ft | 196 kts | 207° |
| 2026-05-06 18:55 | 57.60692 | 12.22861 | 3359 ft | 222 kts | 206° |
| 2026-05-06 18:55 | 57.59220 | 12.21539 | 3903 ft | 246 kts | 206° |
| 2026-05-06 18:56 | 57.57693 | 12.19951 | 4764 ft | 255 kts | 220° |
| 2026-05-06 18:56 | 57.56675 | 12.17278 | 5726 ft | 263 kts | 249° |
| 2026-05-06 18:56 | 57.56259 | 12.13931 | 6722 ft | 267 kts | 257° |
| 2026-05-06 18:56 | 57.55907 | 12.10504 | 7695 ft | 271 kts | 257° |
| 2026-05-06 18:57 | 57.55562 | 12.07090 | 8670 ft | 273 kts | 258° |
| 2026-05-06 18:57 | 57.55204 | 12.03564 | 9629 ft | 277 kts | 258° |
| 2026-05-06 18:57 | 57.54842 | 12.00045 | 10303 ft | 289 kts | 259° |
| 2026-05-06 18:57 | 57.54457 | 11.96350 | 10628 ft | 311 kts | 259° |
| 2026-05-06 18:58 | 57.54105 | 11.92528 | 11307 ft | 318 kts | 264° |
| 2026-05-06 18:58 | 57.54121 | 11.88386 | 12111 ft | 323 kts | 276° |
| 2026-05-06 18:58 | 57.54381 | 11.84213 | 13006 ft | 324 kts | 276° |
| 2026-05-06 18:58 | 57.54637 | 11.80022 | 13815 ft | 328 kts | 276° |
| 2026-05-06 18:59 | 57.54890 | 11.75779 | 14546 ft | 331 kts | 276° |
| 2026-05-06 18:59 | 57.55144 | 11.71503 | 15300 ft | 334 kts | 276° |
| 2026-05-06 18:59 | 57.55396 | 11.67189 | 16048 ft | 336 kts | 276° |
| 2026-05-06 18:59 | 57.55645 | 11.62855 | 16787 ft | 338 kts | 275° |
| 2026-05-06 19:00 | 57.55896 | 11.58483 | 17547 ft | 340 kts | 275° |
| 2026-05-06 19:00 | 57.56149 | 11.54091 | 18282 ft | 342 kts | 275° |
| 2026-05-06 19:00 | 57.56405 | 11.49671 | 18916 ft | 344 kts | 275° |
| 2026-05-06 19:00 | 57.56658 | 11.45226 | 19556 ft | 346 kts | 275° |
| 2026-05-06 19:01 | 57.56908 | 11.40755 | 20203 ft | 348 kts | 274° |
| 2026-05-06 19:01 | 57.57155 | 11.36299 | 20844 ft | 350 kts | 274° |
| 2026-05-06 19:01 | 57.57406 | 11.31721 | 21490 ft | 353 kts | 274° |
| 2026-05-06 19:01 | 57.57651 | 11.27215 | 22127 ft | 355 kts | 274° |
| 2026-05-06 19:02 | 57.57907 | 11.22560 | 22764 ft | 357 kts | 274° |
| 2026-05-06 19:02 | 57.58157 | 11.18006 | 23381 ft | 359 kts | 273° |
| 2026-05-06 19:02 | 57.58594 | 11.13395 | 23905 ft | 365 kts | 283° |
| 2026-05-06 19:02 | 57.59574 | 11.08988 | 24388 ft | 373 kts | 295° |
| 2026-05-06 19:03 | 57.61098 | 11.04997 | 24858 ft | 384 kts | 307° |
| 2026-05-06 19:03 | 57.63128 | 11.01656 | 25304 ft | 396 kts | 319° |
| 2026-05-06 19:03 | 57.65451 | 10.98838 | 25739 ft | 400 kts | 321° |
| 2026-05-06 19:03 | 57.67797 | 10.96015 | 26158 ft | 403 kts | 320° |
| 2026-05-06 19:04 | 57.70162 | 10.93162 | 26598 ft | 406 kts | 320° |
| 2026-05-06 19:04 | 57.72541 | 10.90286 | 27016 ft | 408 kts | 320° |
| 2026-05-06 19:04 | 57.74929 | 10.87393 | 27468 ft | 410 kts | 320° |
| 2026-05-06 19:04 | 57.77330 | 10.84474 | 27877 ft | 413 kts | 319° |
| 2026-05-06 19:05 | 57.79747 | 10.81523 | 28269 ft | 415 kts | 319° |
| 2026-05-06 19:05 | 57.82178 | 10.78551 | 28649 ft | 418 kts | 319° |
| 2026-05-06 19:05 | 57.84619 | 10.75565 | 29025 ft | 421 kts | 319° |
| 2026-05-06 19:05 | 57.87083 | 10.72549 | 29386 ft | 423 kts | 319° |
| 2026-05-06 19:06 | 57.89557 | 10.69521 | 29739 ft | 426 kts | 319° |
| 2026-05-06 19:06 | 57.92054 | 10.66460 | 30074 ft | 429 kts | 319° |
| 2026-05-06 19:06 | 57.94558 | 10.63387 | 30360 ft | 431 kts | 319° |
| 2026-05-06 19:06 | 57.97085 | 10.60279 | 30648 ft | 433 kts | 319° |
| 2026-05-06 19:07 | 57.99575 | 10.57208 | 30934 ft | 435 kts | 319° |
| 2026-05-06 19:07 | 58.02113 | 10.54073 | 31199 ft | 437 kts | 319° |
| 2026-05-06 19:07 | 58.04669 | 10.50908 | 31509 ft | 439 kts | 319° |
| 2026-05-06 19:07 | 58.07225 | 10.47736 | 31835 ft | 439 kts | 319° |
| 2026-05-06 19:08 | 58.09771 | 10.44576 | 32253 ft | 437 kts | 319° |
| 2026-05-06 19:08 | 58.12306 | 10.41426 | 32637 ft | 436 kts | 319° |
| 2026-05-06 19:08 | 58.14836 | 10.38276 | 33012 ft | 435 kts | 319° |
| 2026-05-06 19:08 | 58.17359 | 10.35128 | 33372 ft | 434 kts | 319° |
| 2026-05-06 19:09 | 58.19888 | 10.31969 | 33733 ft | 434 kts | 319° |
| 2026-05-06 19:09 | 58.22406 | 10.28814 | 34071 ft | 434 kts | 319° |
| 2026-05-06 19:09 | 58.24921 | 10.25657 | 34357 ft | 434 kts | 319° |
| 2026-05-06 19:09 | 58.27436 | 10.22488 | 34617 ft | 434 kts | 319° |
| 2026-05-06 19:10 | 58.29955 | 10.19305 | 34868 ft | 435 kts | 319° |
| 2026-05-06 19:10 | 58.32473 | 10.16127 | 35113 ft | 435 kts | 319° |
| 2026-05-06 19:10 | 58.34870 | 10.12676 | 35357 ft | 430 kts | 313° |
| 2026-05-06 19:10 | 58.37166 | 10.09039 | 35590 ft | 430 kts | 313° |
| 2026-05-06 19:11 | 58.39466 | 10.05385 | 35819 ft | 430 kts | 314° |
| 2026-05-06 19:11 | 58.41763 | 10.01729 | 35947 ft | 430 kts | 314° |
| 2026-05-06 19:11 | 58.44051 | 9.98087 | 35999 ft | 426 kts | 314° |
| 2026-05-06 19:12 | 58.48554 | 9.90913 | 35972 ft | 423 kts | 314° |
| 2026-05-06 19:12 | 58.53066 | 9.83694 | 35975 ft | 422 kts | 314° |
| 2026-05-06 19:13 | 58.57563 | 9.76458 | 35972 ft | 422 kts | 314° |
| 2026-05-06 19:13 | 58.62053 | 9.69188 | 35986 ft | 422 kts | 314° |
| 2026-05-06 19:14 | 58.66545 | 9.61929 | 35974 ft | 422 kts | 314° |
| 2026-05-06 19:14 | 58.71029 | 9.54650 | 36003 ft | 422 kts | 313° |
| 2026-05-06 19:15 | 58.75511 | 9.47351 | 36010 ft | 422 kts | 314° |
| 2026-05-06 19:15 | 58.79983 | 9.40026 | 36000 ft | 421 kts | 313° |
| 2026-05-06 19:16 | 58.84448 | 9.32686 | 35998 ft | 421 kts | 313° |
| 2026-05-06 19:16 | 58.88872 | 9.25404 | 35992 ft | 421 kts | 313° |
| 2026-05-06 19:17 | 58.93328 | 9.18066 | 35987 ft | 421 kts | 313° |
| 2026-05-06 19:17 | 58.97778 | 9.10672 | 35990 ft | 421 kts | 313° |
| 2026-05-06 19:18 | 59.02216 | 9.03265 | 36003 ft | 421 kts | 313° |
| 2026-05-06 19:18 | 59.06568 | 8.95710 | 36014 ft | 418 kts | 310° |
| 2026-05-06 19:19 | 59.10695 | 8.87793 | 36004 ft | 416 kts | 309° |
| 2026-05-06 19:19 | 59.14773 | 8.79770 | 35994 ft | 416 kts | 309° |
| 2026-05-06 19:20 | 59.18868 | 8.71799 | 35989 ft | 417 kts | 309° |
| 2026-05-06 19:20 | 59.23005 | 8.63819 | 35986 ft | 417 kts | 309° |
| 2026-05-06 19:21 | 59.27107 | 8.55898 | 36003 ft | 417 kts | 309° |
| 2026-05-06 19:21 | 59.31231 | 8.47908 | 36001 ft | 417 kts | 309° |
| 2026-05-06 19:22 | 59.35334 | 8.39892 | 36047 ft | 417 kts | 309° |
| 2026-05-06 19:22 | 59.39434 | 8.31844 | 36024 ft | 417 kts | 309° |
| 2026-05-06 19:23 | 59.43535 | 8.23763 | 35693 ft | 417 kts | 309° |
| 2026-05-06 19:23 | 59.45580 | 8.19732 | 35452 ft | 416 kts | 309° |
| 2026-05-06 19:23 | 59.47620 | 8.15707 | 35213 ft | 416 kts | 309° |
| 2026-05-06 19:23 | 59.49664 | 8.11664 | 34976 ft | 415 kts | 309° |
| 2026-05-06 19:24 | 59.51696 | 8.07633 | 34742 ft | 414 kts | 309° |
| 2026-05-06 19:24 | 59.53716 | 8.03621 | 34520 ft | 412 kts | 309° |
| 2026-05-06 19:24 | 59.55724 | 7.99628 | 34291 ft | 409 kts | 309° |
| 2026-05-06 19:24 | 59.57722 | 7.95644 | 34061 ft | 406 kts | 308° |
| 2026-05-06 19:25 | 59.59700 | 7.91690 | 33790 ft | 403 kts | 308° |
| 2026-05-06 19:25 | 59.61667 | 7.87750 | 33511 ft | 400 kts | 308° |
| 2026-05-06 19:25 | 59.63610 | 7.83850 | 33273 ft | 397 kts | 308° |
| 2026-05-06 19:25 | 59.65535 | 7.79987 | 33047 ft | 392 kts | 308° |
| 2026-05-06 19:26 | 59.67445 | 7.76150 | 32780 ft | 390 kts | 308° |
| 2026-05-06 19:26 | 59.69338 | 7.72337 | 32475 ft | 386 kts | 307° |
| 2026-05-06 19:26 | 59.71203 | 7.68577 | 31993 ft | 381 kts | 307° |
| 2026-05-06 19:26 | 59.73057 | 7.64835 | 31520 ft | 377 kts | 306° |
| 2026-05-06 19:27 | 59.74861 | 7.61188 | 31065 ft | 374 kts | 305° |
| 2026-05-06 19:27 | 59.76664 | 7.57527 | 30609 ft | 370 kts | 305° |
| 2026-05-06 19:27 | 59.78454 | 7.53882 | 30149 ft | 366 kts | 304° |
| 2026-05-06 19:27 | 59.80223 | 7.50283 | 29645 ft | 362 kts | 304° |
| 2026-05-06 19:28 | 59.81969 | 7.46733 | 29214 ft | 356 kts | 304° |
| 2026-05-06 19:28 | 59.83687 | 7.43237 | 28791 ft | 350 kts | 304° |
| 2026-05-06 19:28 | 59.85373 | 7.39793 | 28389 ft | 344 kts | 304° |
| 2026-05-06 19:28 | 59.87032 | 7.36399 | 27989 ft | 340 kts | 304° |
| 2026-05-06 19:29 | 59.88672 | 7.33039 | 27602 ft | 335 kts | 304° |
| 2026-05-06 19:29 | 59.90282 | 7.29726 | 27216 ft | 330 kts | 304° |
| 2026-05-06 19:29 | 59.91867 | 7.26453 | 26865 ft | 326 kts | 305° |
| 2026-05-06 19:29 | 59.93427 | 7.23230 | 26475 ft | 321 kts | 305° |
| 2026-05-06 19:30 | 59.94968 | 7.20049 | 26108 ft | 316 kts | 305° |
| 2026-05-06 19:30 | 59.96484 | 7.16913 | 25741 ft | 312 kts | 305° |
| 2026-05-06 19:30 | 59.97964 | 7.13854 | 25373 ft | 308 kts | 305° |
| 2026-05-06 19:30 | 59.99443 | 7.10791 | 25015 ft | 305 kts | 305° |
| 2026-05-06 19:31 | 60.00924 | 7.07711 | 24614 ft | 302 kts | 305° |
| 2026-05-06 19:31 | 60.02349 | 7.04743 | 24224 ft | 298 kts | 305° |
| 2026-05-06 19:31 | 60.05201 | 6.98809 | 23439 ft | 293 kts | 305° |
| 2026-05-06 19:32 | 60.06601 | 6.95886 | 23038 ft | 289 kts | 305° |
| 2026-05-06 19:32 | 60.07981 | 6.93004 | 22663 ft | 285 kts | 305° |
| 2026-05-06 19:32 | 60.09344 | 6.90147 | 22294 ft | 281 kts | 305° |
| 2026-05-06 19:32 | 60.10685 | 6.87333 | 21923 ft | 277 kts | 305° |
| 2026-05-06 19:33 | 60.12015 | 6.84544 | 21563 ft | 275 kts | 305° |
| 2026-05-06 19:33 | 60.13328 | 6.81784 | 21210 ft | 274 kts | 306° |
| 2026-05-06 19:33 | 60.14199 | 6.79954 | 20984 ft | 273 kts | 306° |
| 2026-05-06 19:33 | 60.15944 | 6.76276 | 20516 ft | 271 kts | 306° |
| 2026-05-06 19:34 | 60.16803 | 6.74462 | 20284 ft | 271 kts | 306° |
| 2026-05-06 19:34 | 60.18522 | 6.70834 | 19829 ft | 270 kts | 306° |
| 2026-05-06 19:34 | 60.19394 | 6.68992 | 19599 ft | 269 kts | 306° |
| 2026-05-06 19:34 | 60.20682 | 6.66272 | 19262 ft | 268 kts | 306° |
| 2026-05-06 19:35 | 60.21963 | 6.63562 | 18903 ft | 267 kts | 307° |
| 2026-05-06 19:35 | 60.23249 | 6.60833 | 18510 ft | 269 kts | 307° |
| 2026-05-06 19:35 | 60.24415 | 6.57942 | 18097 ft | 263 kts | 297° |
| 2026-05-06 19:35 | 60.25264 | 6.54761 | 17714 ft | 257 kts | 292° |
| 2026-05-06 19:36 | 60.26050 | 6.51546 | 17355 ft | 255 kts | 292° |
| 2026-05-06 19:36 | 60.26833 | 6.48338 | 16986 ft | 255 kts | 292° |
| 2026-05-06 19:36 | 60.27608 | 6.45171 | 16637 ft | 255 kts | 293° |
| 2026-05-06 19:36 | 60.28391 | 6.41961 | 16281 ft | 256 kts | 293° |
| 2026-05-06 19:37 | 60.29179 | 6.38720 | 15926 ft | 255 kts | 293° |
| 2026-05-06 19:37 | 60.29953 | 6.35541 | 15577 ft | 255 kts | 293° |
| 2026-05-06 19:37 | 60.30738 | 6.32319 | 15221 ft | 256 kts | 293° |
| 2026-05-06 19:37 | 60.31521 | 6.29090 | 14895 ft | 257 kts | 294° |
| 2026-05-06 19:38 | 60.32309 | 6.25838 | 14523 ft | 259 kts | 294° |
| 2026-05-06 19:38 | 60.33103 | 6.22543 | 14166 ft | 261 kts | 294° |
| 2026-05-06 19:38 | 60.33899 | 6.19242 | 13807 ft | 262 kts | 295° |
| 2026-05-06 19:38 | 60.34699 | 6.15931 | 13420 ft | 262 kts | 295° |
| 2026-05-06 19:39 | 60.35498 | 6.12628 | 13055 ft | 262 kts | 295° |
| 2026-05-06 19:39 | 60.36306 | 6.09280 | 12671 ft | 271 kts | 295° |
| 2026-05-06 19:39 | 60.37133 | 6.05844 | 12351 ft | 268 kts | 295° |
| 2026-05-06 19:39 | 60.37917 | 6.02584 | 12195 ft | 249 kts | 295° |
| 2026-05-06 19:40 | 60.38657 | 5.99501 | 11798 ft | 241 kts | 295° |
| 2026-05-06 19:40 | 60.39382 | 5.96472 | 11289 ft | 238 kts | 295° |
| 2026-05-06 19:40 | 60.40107 | 5.93426 | 10859 ft | 242 kts | 294° |
| 2026-05-06 19:40 | 60.40830 | 5.90391 | 10515 ft | 243 kts | 295° |
| 2026-05-06 19:41 | 60.41558 | 5.87332 | 10179 ft | 242 kts | 295° |
| 2026-05-06 19:41 | 60.42281 | 5.84287 | 10034 ft | 237 kts | 295° |
| 2026-05-06 19:41 | 60.42997 | 5.81265 | 9616 ft | 243 kts | 295° |
| 2026-05-06 19:41 | 60.43717 | 5.78226 | 9157 ft | 235 kts | 295° |
| 2026-05-06 19:42 | 60.44416 | 5.75262 | 8736 ft | 232 kts | 294° |
| 2026-05-06 19:42 | 60.45109 | 5.72321 | 8380 ft | 231 kts | 294° |
| 2026-05-06 19:42 | 60.45800 | 5.69389 | 8262 ft | 231 kts | 295° |
| 2026-05-06 19:42 | 60.46488 | 5.66480 | 8184 ft | 231 kts | 295° |
| 2026-05-06 19:43 | 60.47332 | 5.63773 | 8075 ft | 231 kts | 312° |
| 2026-05-06 19:43 | 60.48643 | 5.61894 | 8040 ft | 234 kts | 335° |
| 2026-05-06 19:43 | 60.50246 | 5.61205 | 8043 ft | 239 kts | 357° |
| 2026-05-06 19:43 | 60.51916 | 5.61262 | 8048 ft | 240 kts | 358° |
| 2026-05-06 19:44 | 60.53576 | 5.61112 | 8048 ft | 238 kts | 347° |
| 2026-05-06 19:44 | 60.55153 | 5.60168 | 8025 ft | 237 kts | 338° |
| 2026-05-06 19:44 | 60.56708 | 5.59054 | 7697 ft | 233 kts | 338° |
| 2026-05-06 19:44 | 60.58231 | 5.57961 | 7459 ft | 233 kts | 335° |
| 2026-05-06 19:45 | 60.59635 | 5.56340 | 7196 ft | 231 kts | 319° |
| 2026-05-06 19:45 | 60.60853 | 5.54282 | 7038 ft | 230 kts | 318° |
| 2026-05-06 19:45 | 60.62073 | 5.52188 | 6994 ft | 229 kts | 318° |
| 2026-05-06 19:45 | 60.63291 | 5.50091 | 6998 ft | 227 kts | 318° |
| 2026-05-06 19:46 | 60.64440 | 5.48125 | 6941 ft | 206 kts | 317° |
| 2026-05-06 19:46 | 60.65518 | 5.46328 | 6709 ft | 193 kts | 318° |
| 2026-05-06 19:46 | 60.66534 | 5.44647 | 6463 ft | 187 kts | 318° |
| 2026-05-06 19:46 | 60.67541 | 5.42984 | 6196 ft | 186 kts | 318° |
| 2026-05-06 19:47 | 60.68539 | 5.41316 | 6018 ft | 185 kts | 314° |
| 2026-05-06 19:47 | 60.69131 | 5.39088 | 6018 ft | 180 kts | 275° |
| 2026-05-06 19:47 | 60.68934 | 5.36591 | 6007 ft | 180 kts | 251° |
| 2026-05-06 19:47 | 60.68486 | 5.34218 | 6005 ft | 180 kts | 248° |
| 2026-05-06 19:48 | 60.68012 | 5.31889 | 6006 ft | 180 kts | 248° |
| 2026-05-06 19:48 | 60.67528 | 5.29536 | 6013 ft | 180 kts | 248° |
| 2026-05-06 19:48 | 60.67042 | 5.27184 | 6005 ft | 180 kts | 248° |
| 2026-05-06 19:48 | 60.66544 | 5.24846 | 6012 ft | 180 kts | 243° |
| 2026-05-06 19:49 | 60.65670 | 5.23025 | 5922 ft | 185 kts | 217° |
| 2026-05-06 19:49 | 60.64587 | 5.21629 | 5540 ft | 183 kts | 213° |
| 2026-05-06 19:49 | 60.63485 | 5.20306 | 5145 ft | 184 kts | 213° |
| 2026-05-06 19:49 | 60.62378 | 5.18986 | 4746 ft | 184 kts | 213° |
| 2026-05-06 19:50 | 60.61277 | 5.17671 | 4338 ft | 183 kts | 212° |
| 2026-05-06 19:50 | 60.60086 | 5.16813 | 3942 ft | 185 kts | 187° |
| 2026-05-06 19:50 | 60.58806 | 5.16682 | 3548 ft | 185 kts | 184° |
| 2026-05-06 19:50 | 60.57523 | 5.16572 | 3141 ft | 184 kts | 184° |
| 2026-05-06 19:51 | 60.56256 | 5.16465 | 3009 ft | 183 kts | 184° |
| 2026-05-06 19:51 | 60.54977 | 5.16359 | 3008 ft | 184 kts | 184° |
| 2026-05-06 19:51 | 60.53705 | 5.16251 | 3011 ft | 184 kts | 184° |
| 2026-05-06 19:51 | 60.52422 | 5.16143 | 3010 ft | 184 kts | 184° |
| 2026-05-06 19:52 | 60.51142 | 5.16037 | 3007 ft | 184 kts | 184° |
| 2026-05-06 19:52 | 60.49866 | 5.15932 | 3007 ft | 184 kts | 184° |
| 2026-05-06 19:52 | 60.48586 | 5.15825 | 3008 ft | 184 kts | 184° |
| 2026-05-06 19:52 | 60.47322 | 5.15764 | 3007 ft | 184 kts | 177° |
| 2026-05-06 19:53 | 60.46075 | 5.16159 | 3003 ft | 174 kts | 172° |
| 2026-05-06 19:53 | 60.44906 | 5.16560 | 3006 ft | 168 kts | 172° |
| 2026-05-06 19:53 | 60.43760 | 5.16946 | 2903 ft | 166 kts | 172° |
| 2026-05-06 19:53 | 60.42623 | 5.17330 | 2717 ft | 165 kts | 172° |
| 2026-05-06 19:54 | 60.41508 | 5.17708 | 2513 ft | 163 kts | 172° |
| 2026-05-06 19:54 | 60.40387 | 5.18087 | 2280 ft | 163 kts | 172° |
| 2026-05-06 19:54 | 60.39273 | 5.18463 | 2050 ft | 162 kts | 172° |
| 2026-05-06 19:54 | 60.38163 | 5.18839 | 1822 ft | 161 kts | 172° |
| 2026-05-06 19:55 | 60.37074 | 5.19207 | 1589 ft | 152 kts | 172° |
| 2026-05-06 19:55 | 60.36076 | 5.19545 | 1384 ft | 140 kts | 172° |
| 2026-05-06 19:55 | 60.35116 | 5.19869 | 1183 ft | 139 kts | 172° |
| 2026-05-06 19:55 | 60.34174 | 5.20211 | 991 ft | 137 kts | 172° |
| 2026-05-06 19:56 | 60.33252 | 5.20509 | 816 ft | 135 kts | 172° |
| 2026-05-06 19:56 | 60.32328 | 5.20813 | 593 ft | 133 kts | 172° |
| 2026-05-06 19:56 | 60.31418 | 5.21123 | 400 ft | 132 kts | 172° |
| 2026-05-06 19:56 | 60.30613 | 5.21389 | 237 ft | 132 kts | 173° |
| 2026-05-06 19:57 | 60.29754 | 5.21676 | 162 ft | 113 kts | 172° |
| 2026-05-06 19:57 | 60.29136 | 5.21886 | 154 ft | 65 kts | 171° |
| 2026-05-06 19:57 | 60.28857 | 5.21977 | 150 ft | 16 kts | 170° |
| 2026-05-06 19:57 | 60.28765 | 5.22009 | 149 ft | 20 kts | 170° |
| 2026-05-06 19:58 | 60.28670 | 5.22166 | 149 ft | 20 kts | 87° |
| 2026-05-06 19:58 | 60.28678 | 5.22275 | 149 ft | 0 kts | 80° |
| 2026-05-06 19:59 | 60.28679 | 5.22276 | 149 ft | 1 kts | 80° |
| 2026-05-06 19:59 | 60.28685 | 5.22356 | 149 ft | 7 kts | 80° |
| 2026-05-06 20:00 | 60.28699 | 5.22442 | 149 ft | 7 kts | 49° |
| 2026-05-06 20:00 | 60.28738 | 5.22463 | 149 ft | 0 kts | 0° |
| 2026-05-06 20:00 | 60.28751 | 5.22486 | 149 ft | 5 kts | 48° |
| 2026-05-06 20:00 | 60.28773 | 5.22530 | 149 ft | 4 kts | 32° |
| 2026-05-06 20:01 | 60.28792 | 5.22559 | 149 ft | 3 kts | 38° |
| 2026-05-06 20:01 | 60.28806 | 5.22581 | 156 ft | 2 kts | 36° |
| 2026-05-06 20:01 | 60.28816 | 5.22595 | 156 ft | 1 kts | 36° |
| 2026-05-06 20:01 | 60.28821 | 5.22603 | 152 ft | 1 kts | 36° |
| 2026-05-06 20:02 | 60.28823 | 5.22606 | 150 ft | 0 kts | 36° |